createdAt,value
2022-09-23T00:01:07.461Z,15.08
2022-09-23T00:03:35.205Z,14.45
2022-09-23T00:06:11.747Z,14.51
2022-09-23T00:08:39.881Z,14.84
2022-09-23T00:11:14.840Z,14.52
2022-09-23T00:13:46.226Z,14.02
2022-09-23T00:16:15.565Z,14.20
2022-09-23T00:18:42.749Z,14.28
2022-09-23T00:21:12.171Z,14.14
2022-09-23T00:23:40.588Z,14.83
2022-09-23T00:26:08.670Z,14.52
2022-09-23T00:28:35.846Z,14.37
2022-09-23T00:31:08.417Z,13.99
2022-09-23T00:33:35.003Z,14.34
2022-09-23T00:36:03.061Z,14.22
2022-09-23T00:38:29.794Z,14.21
2022-09-23T00:40:57.031Z,14.28
2022-09-23T00:43:37.739Z,14.03
2022-09-23T00:46:06.363Z,13.99
2022-09-23T00:48:32.929Z,14.48
2022-09-23T00:50:59.448Z,14.37
2022-09-23T00:53:29.030Z,14.34
2022-09-23T00:55:59.267Z,14.66
2022-09-23T00:58:31.154Z,15.09
2022-09-23T01:01:00.401Z,14.74
2022-09-23T01:03:27.229Z,14.60
2022-09-23T01:05:54.267Z,14.43
2022-09-23T01:08:22.090Z,14.00
2022-09-23T01:11:14.909Z,14.04
2022-09-23T01:14:16.212Z,14.10
2022-09-23T01:16:58.764Z,14.05
2022-09-23T01:19:43.603Z,14.14
2022-09-23T01:22:27.934Z,14.59
2022-09-23T01:25:32.043Z,14.29
2022-09-23T01:28:29.153Z,14.60
2022-09-23T01:31:06.067Z,14.52
2022-09-23T01:34:01.559Z,14.30
2022-09-23T01:36:39.749Z,14.75
2022-09-23T01:39:24.024Z,14.69
2022-09-23T01:41:59.930Z,14.18
2022-09-23T01:44:47.555Z,14.26
2022-09-23T01:47:22.763Z,14.11
2022-09-23T01:49:55.014Z,14.46
2022-09-23T01:52:32.744Z,14.68
2022-09-23T01:55:23.442Z,15.00
2022-09-23T01:57:55.455Z,14.65
2022-09-23T02:00:24.471Z,14.08
2022-09-23T02:02:59.337Z,14.87
2022-09-23T02:05:26.075Z,15.11
2022-09-23T02:08:01.314Z,14.51
2022-09-23T02:10:37.472Z,14.40
2022-09-23T02:13:15.774Z,14.45
2022-09-23T02:15:49.154Z,14.62
2022-09-23T02:18:30.086Z,14.58
2022-09-23T02:21:02.936Z,14.00
2022-09-23T02:23:44.105Z,14.35
2022-09-23T02:26:38.107Z,14.69
2022-09-23T02:29:21.941Z,14.72
2022-09-23T02:32:02.017Z,14.72
2022-09-23T02:34:47.451Z,14.82
2022-09-23T02:37:39.376Z,14.28
2022-09-23T02:40:19.946Z,14.77
2022-09-23T02:43:05.701Z,14.49
2022-09-23T02:45:33.734Z,14.15
2022-09-23T02:48:35.961Z,13.98
2022-09-23T02:51:03.720Z,14.23
2022-09-23T02:53:33.881Z,14.15
2022-09-23T02:56:01.774Z,13.88
2022-09-23T02:58:30.051Z,13.74
2022-09-23T03:00:56.908Z,14.01
2022-09-23T03:03:53.889Z,14.16
2022-09-23T03:06:26.853Z,13.99
2022-09-23T03:09:00.333Z,13.83
2022-09-23T03:11:27.686Z,13.96
2022-09-23T03:14:00.125Z,13.97
2022-09-23T03:16:38.870Z,13.86
2022-09-23T03:19:18.429Z,13.55
2022-09-23T03:21:52.965Z,14.34
2022-09-23T03:24:21.788Z,13.85
2022-09-23T03:26:50.254Z,13.77
2022-09-23T03:29:19.317Z,13.55
2022-09-23T03:31:46.576Z,13.87
2022-09-23T03:34:22.684Z,13.67
2022-09-23T03:37:07.530Z,13.42
2022-09-23T03:39:36.705Z,13.27
2022-09-23T03:42:28.114Z,13.31
2022-09-23T03:45:00.410Z,13.28
2022-09-23T03:47:28.522Z,13.31
2022-09-23T03:49:56.756Z,13.76
2022-09-23T03:52:24.799Z,13.75
2022-09-23T03:54:52.232Z,13.54
2022-09-23T03:57:22.061Z,13.65
2022-09-23T03:59:50.546Z,13.64
2022-09-23T04:02:18.729Z,13.78
2022-09-23T04:04:47.114Z,13.78
2022-09-23T04:07:14.555Z,13.73
2022-09-23T04:09:41.312Z,13.97
2022-09-23T04:12:08.386Z,13.95
2022-09-23T04:14:35.508Z,14.63
2022-09-23T04:17:02.768Z,14.71
2022-09-23T04:19:29.317Z,14.38
2022-09-23T04:21:55.848Z,14.58
2022-09-23T04:24:22.549Z,14.75
2022-09-23T04:26:53.851Z,14.40
2022-09-23T04:29:21.262Z,14.61
2022-09-23T04:31:47.954Z,14.70
2022-09-23T04:34:17.402Z,14.75
2022-09-23T04:36:45.300Z,14.77
2022-09-23T04:39:13.036Z,14.73
2022-09-23T04:41:39.521Z,14.94
2022-09-23T04:44:06.233Z,14.37
2022-09-23T04:46:34.189Z,14.55
2022-09-23T04:49:00.884Z,14.17
2022-09-23T04:51:28.424Z,14.34
2022-09-23T04:53:55.679Z,14.59
2022-09-23T04:56:25.113Z,14.34
2022-09-23T04:58:52.333Z,14.22
2022-09-23T05:01:27.246Z,14.49
2022-09-23T05:04:02.341Z,14.59
2022-09-23T05:06:31.468Z,14.53
2022-09-23T05:08:59.221Z,15.06
2022-09-23T05:11:27.233Z,14.57
2022-09-23T05:13:54.650Z,14.59
2022-09-23T05:16:23.209Z,14.79
2022-09-23T05:18:51.450Z,14.65
2022-09-23T05:21:21.060Z,14.84
2022-09-23T05:23:49.638Z,15.02
2022-09-23T05:26:16.462Z,14.72
2022-09-23T05:28:42.949Z,15.07
2022-09-23T05:31:19.356Z,14.72
2022-09-23T05:33:58.525Z,14.36
2022-09-23T05:36:26.440Z,14.64
2022-09-23T05:38:53.206Z,14.52
2022-09-23T05:41:23.133Z,14.32
2022-09-23T05:43:51.637Z,15.07
2022-09-23T05:46:20.909Z,14.96
2022-09-23T05:48:47.618Z,15.16
2022-09-23T05:51:20.074Z,15.15
2022-09-23T05:53:47.682Z,15.24
2022-09-23T05:56:18.492Z,15.02
2022-09-23T05:58:45.196Z,15.15
2022-09-23T06:01:13.790Z,14.89
2022-09-23T06:03:41.547Z,15.30
2022-09-23T06:06:14.515Z,15.44
2022-09-23T06:08:42.243Z,15.46
2022-09-23T06:11:09.211Z,15.24
2022-09-23T06:13:39.403Z,15.75
2022-09-23T06:16:08.128Z,15.87
2022-09-23T06:18:35.868Z,15.47
2022-09-23T06:21:03.571Z,15.31
2022-09-23T06:23:30.929Z,15.68
2022-09-23T06:26:05.929Z,15.53
2022-09-23T06:28:34.361Z,15.60
2022-09-23T06:31:03.795Z,15.45
2022-09-23T06:33:36.842Z,15.69
2022-09-23T06:36:06.230Z,15.87
2022-09-23T06:38:34.235Z,15.61
2022-09-23T06:41:01.978Z,15.95
2022-09-23T06:43:31.838Z,15.93
2022-09-23T06:46:00.169Z,15.40
2022-09-23T06:48:28.160Z,15.28
2022-09-23T06:50:58.539Z,15.76
2022-09-23T06:53:25.522Z,16.04
2022-09-23T06:56:00.371Z,15.81
2022-09-23T06:58:31.631Z,15.64
2022-09-23T07:01:07.126Z,15.35
2022-09-23T07:03:35.047Z,15.77
2022-09-23T07:06:02.281Z,16.08
2022-09-23T07:08:30.526Z,15.85
2022-09-23T07:10:59.400Z,16.14
2022-09-23T07:13:27.445Z,16.56
2022-09-23T07:15:58.310Z,16.34
2022-09-23T07:18:26.917Z,16.82
2022-09-23T07:20:58.003Z,16.74
2022-09-23T07:23:25.845Z,16.61
2022-09-23T07:25:52.652Z,17.15
2022-09-23T07:28:20.095Z,16.98
2022-09-23T07:30:58.608Z,16.84
2022-09-23T07:33:33.236Z,17.07
2022-09-23T07:36:05.435Z,17.54
2022-09-23T07:38:32.066Z,17.55
2022-09-23T07:41:08.071Z,17.19
2022-09-23T07:43:37.315Z,17.24
2022-09-23T07:46:08.259Z,17.93
2022-09-23T07:48:35.979Z,18.41
2022-09-23T07:51:10.782Z,18.88
2022-09-23T07:53:37.518Z,19.28
2022-09-23T07:56:06.491Z,19.85
2022-09-23T07:58:34.428Z,20.57
2022-09-23T08:01:06.463Z,20.40
2022-09-23T08:03:33.470Z,20.68
2022-09-23T08:06:12.364Z,20.22
2022-09-23T08:08:43.333Z,20.26
2022-09-23T08:11:12.230Z,20.45
2022-09-23T08:13:38.807Z,20.41
2022-09-23T08:16:06.734Z,20.56
2022-09-23T08:18:33.512Z,20.75
2022-09-23T08:21:00.384Z,20.86
2022-09-23T08:23:27.691Z,20.64
2022-09-23T08:26:00.787Z,20.84
2022-09-23T08:28:28.225Z,20.73
2022-09-23T08:30:55.370Z,21.42
2022-09-23T08:33:23.783Z,21.11
2022-09-23T08:35:51.420Z,21.91
2022-09-23T08:38:18.107Z,21.42
2022-09-23T08:40:49.503Z,21.88
2022-09-23T08:43:26.535Z,22.21
2022-09-23T08:45:55.693Z,21.55
2022-09-23T08:48:36.803Z,22.22
2022-09-23T08:51:11.969Z,22.30
2022-09-23T08:53:38.766Z,22.77
2022-09-23T08:56:11.186Z,22.41
2022-09-23T08:59:13.476Z,22.62
2022-09-23T09:01:46.184Z,22.38
2022-09-23T09:04:22.932Z,23.12
2022-09-23T09:07:12.365Z,22.79
2022-09-23T09:09:55.072Z,22.40
2022-09-23T09:12:50.814Z,23.04
2022-09-23T09:15:27.986Z,23.05
2022-09-23T09:18:16.304Z,23.65
2022-09-23T09:21:11.675Z,23.64
2022-09-23T09:23:57.351Z,21.92
2022-09-23T09:26:27.191Z,22.11
2022-09-23T09:29:31.257Z,22.83
2022-09-23T09:31:57.682Z,23.30
2022-09-23T09:34:33.063Z,23.69
2022-09-23T09:37:09.932Z,23.56
2022-09-23T09:39:36.781Z,24.04
2022-09-23T09:42:08.818Z,23.26
2022-09-23T09:44:50.495Z,23.41
2022-09-23T09:47:46.710Z,24.14
2022-09-23T09:50:34.802Z,24.38
2022-09-23T09:53:16.602Z,23.80
2022-09-23T09:55:43.142Z,24.40
2022-09-23T09:58:16.404Z,24.52
2022-09-23T10:00:45.633Z,24.63
2022-09-23T10:03:14.944Z,24.83
2022-09-23T10:05:45.029Z,24.62
2022-09-23T10:08:32.267Z,24.03
2022-09-23T10:10:58.717Z,24.23
2022-09-23T10:13:27.287Z,25.13
2022-09-23T10:15:54.846Z,24.96
2022-09-23T10:18:47.196Z,24.64
2022-09-23T10:21:17.655Z,24.43
2022-09-23T10:23:50.086Z,23.37
2022-09-23T10:26:18.532Z,24.79
2022-09-23T10:28:51.293Z,24.90
2022-09-23T10:31:32.663Z,25.37
2022-09-23T10:34:00.471Z,25.38
2022-09-23T10:36:29.826Z,24.85
2022-09-23T10:39:18.924Z,24.88
2022-09-23T10:42:40.322Z,24.19
2022-09-23T10:45:39.783Z,24.31
2022-09-23T10:48:21.704Z,24.25
2022-09-23T10:50:51.949Z,24.01
2022-09-23T10:53:47.522Z,24.46
2022-09-23T10:56:35.358Z,24.24
2022-09-23T10:59:44.855Z,22.38
2022-09-23T11:02:31.797Z,23.65
